Time;durP1;ratioP1;P1;durP2;ratioP2;P2;SDS_P1;SDS_P2;PMS_P1;PMS_P2;Temp;Humidity;BMP_temperature;BMP_pressure;BME280_temperature;BME280_humidity;BME280_pressure;Samples;Min_cycle;Max_cycle;Signal;HPM_P1;HPM_P2
2022/03/28 00:00:20;;;;;;;83.15;59.25;;;18.40;59.30;;;;;;4985096;28;91684;-87
2022/03/28 00:02:45;;;;;;;83.55;59.63;;;18.40;59.20;;;;;;4967907;28;92425;-87
2022/03/28 00:05:13;;;;;;;82.28;59.30;;;18.40;59.20;;;;;;4992411;28;91674;-87
2022/03/28 00:07:39;;;;;;;84.57;58.78;;;18.40;59.30;;;;;;4986778;28;90341;-87
2022/03/28 00:10:05;;;;;;;79.80;58.22;;;18.40;59.10;;;;;;4982487;28;96321;-87
2022/03/28 00:12:32;;;;;;;79.93;58.28;;;18.40;59.10;;;;;;4982619;28;93042;-87
2022/03/28 00:14:58;;;;;;;80.75;58.85;;;18.30;59.00;;;;;;4976631;28;91536;-87
2022/03/28 00:17:23;;;;;;;81.75;59.35;;;18.40;59.10;;;;;;4978885;28;90819;-87
2022/03/28 00:19:49;;;;;;;82.47;58.63;;;18.30;58.90;;;;;;5018329;28;89741;-87
2022/03/28 00:22:14;;;;;;;80.00;58.47;;;18.30;58.90;;;;;;4993191;28;92811;-87
2022/03/28 00:24:40;;;;;;;81.30;58.83;;;18.30;59.10;;;;;;4991746;28;90202;-87
2022/03/28 00:27:06;;;;;;;82.50;58.78;;;18.30;59.00;;;;;;4969600;28;90010;-87
2022/03/28 00:29:32;;;;;;;80.53;58.65;;;18.30;59.00;;;;;;4984819;28;91881;-87
2022/03/28 00:31:57;;;;;;;80.00;58.65;;;18.30;59.10;;;;;;4983599;28;91041;-87
2022/03/28 00:34:23;;;;;;;82.78;59.05;;;18.30;58.90;;;;;;4989181;28;90622;-87
2022/03/28 00:36:50;;;;;;;80.68;57.90;;;18.30;58.80;;;;;;4986657;28;94154;-86
2022/03/28 00:39:19;;;;;;;79.85;57.80;;;18.20;58.80;;;;;;4980974;28;90448;-88
2022/03/28 00:41:48;;;;;;;81.18;58.45;;;18.20;58.90;;;;;;4961575;28;91997;-87
2022/03/28 00:44:14;;;;;;;79.57;57.60;;;18.30;59.00;;;;;;4964256;28;90463;-87
2022/03/28 00:46:40;;;;;;;81.18;57.60;;;18.20;58.80;;;;;;4968152;28;90265;-88
2022/03/28 00:49:06;;;;;;;81.80;58.03;;;18.20;58.70;;;;;;4970116;28;93088;-87
2022/03/28 00:51:32;;;;;;;79.30;58.45;;;18.20;58.70;;;;;;4966232;28;93075;-87
2022/03/28 00:53:59;;;;;;;79.55;57.67;;;18.20;58.60;;;;;;4988350;28;91818;-87
2022/03/28 00:56:25;;;;;;;78.55;58.10;;;18.20;58.50;;;;;;4990109;28;90916;-87
2022/03/28 00:58:51;;;;;;;79.10;57.58;;;18.10;58.50;;;;;;4982278;28;91385;-86
2022/03/28 01:01:17;;;;;;;79.68;57.53;;;18.20;58.70;;;;;;4965067;28;91071;-87
2022/03/28 01:03:43;;;;;;;79.20;57.72;;;18.10;58.50;;;;;;4978945;28;91142;-87
2022/03/28 01:06:09;;;;;;;78.13;57.35;;;18.10;58.60;;;;;;4990452;28;89799;-87
2022/03/28 01:08:35;;;;;;;77.45;56.75;;;18.10;58.60;;;;;;4977248;28;90771;-87
2022/03/28 01:11:06;;;;;;;77.50;57.22;;;18.10;58.50;;;;;;4967582;28;91250;-87
2022/03/28 01:13:36;;;;;;;;;;;18.10;58.30;;;;;;4962481;28;90954;-87
2022/03/28 01:16:03;;;;;;;78.65;57.10;;;18.10;58.70;;;;;;4986493;28;92690;-87
2022/03/28 01:18:29;;;;;;;78.63;57.33;;;18.10;58.40;;;;;;4993489;28;92308;-87
2022/03/28 01:20:59;;;;;;;78.32;56.65;;;18.10;58.40;;;;;;4993113;28;94375;-87
2022/03/28 01:23:25;;;;;;;78.53;57.30;;;18.00;58.90;;;;;;4992890;28;94343;-87
2022/03/28 01:25:51;;;;;;;76.70;56.42;;;18.10;58.60;;;;;;4988407;28;91626;-87
2022/03/28 01:28:23;;;;;;;77.30;57.13;;;18.10;58.40;;;;;;4989122;28;90167;-87
2022/03/28 01:30:48;;;;;;;77.53;56.80;;;18.00;58.30;;;;;;4985974;28;90949;-87
2022/03/28 01:33:15;;;;;;;77.50;56.22;;;18.00;58.50;;;;;;4967319;28;91287;-87
2022/03/28 01:35:42;;;;;;;78.53;56.53;;;18.00;58.80;;;;;;4971822;28;89576;-87
2022/03/28 01:38:11;;;;;;;76.97;56.22;;;18.00;58.50;;;;;;4979412;28;94421;-86
2022/03/28 01:40:43;;;;;;;77.22;56.47;;;18.00;58.50;;;;;;4968333;28;94055;-87
2022/03/28 01:43:10;;;;;;;79.10;57.08;;;18.00;58.40;;;;;;4980766;28;92196;-87
2022/03/28 01:45:36;;;;;;;76.18;56.45;;;18.00;58.40;;;;;;4985360;28;91093;-87
2022/03/28 01:48:02;;;;;;;77.85;56.15;;;17.90;58.40;;;;;;4970547;28;91740;-87
2022/03/28 01:50:27;;;;;;;77.50;56.38;;;18.00;58.30;;;;;;4976881;28;90369;-87
2022/03/28 01:52:53;;;;;;;76.32;56.28;;;18.00;58.90;;;;;;4961751;28;94124;-87
2022/03/28 01:55:19;;;;;;;77.82;56.45;;;18.00;58.40;;;;;;4982285;28;90780;-87
2022/03/28 01:57:45;;;;;;;75.05;55.45;;;18.00;58.20;;;;;;4959987;28;94014;-87
2022/03/28 02:00:16;;;;;;;76.63;56.08;;;17.90;58.40;;;;;;4965804;28;93996;-87
2022/03/28 02:02:44;;;;;;;75.53;55.72;;;17.90;58.20;;;;;;4959492;28;90759;-87
2022/03/28 02:05:12;;;;;;;73.10;55.08;;;17.90;58.40;;;;;;4968333;28;89703;-87
2022/03/28 02:07:42;;;;;;;76.57;55.33;;;17.90;58.10;;;;;;4964246;28;96028;-87
2022/03/28 02:10:09;;;;;;;75.00;55.35;;;17.90;58.30;;;;;;4962612;28;92946;-86
2022/03/28 02:12:35;;;;;;;76.35;55.53;;;17.90;58.30;;;;;;4965552;28;94303;-87
2022/03/28 02:15:03;;;;;;;74.53;55.05;;;17.90;58.00;;;;;;4963283;28;90714;-87
2022/03/28 02:17:30;;;;;;;76.63;56.08;;;17.90;58.20;;;;;;4964623;28;91366;-87
2022/03/28 02:19:56;;;;;;;78.55;55.58;;;17.90;58.00;;;;;;4955184;28;94314;-87
2022/03/28 02:22:21;;;;;;;76.75;55.47;;;17.90;58.10;;;;;;4985557;28;89748;-87
2022/03/28 02:24:47;;;;;;;76.38;54.92;;;17.90;58.10;;;;;;4964108;28;89702;-87
2022/03/28 02:27:13;;;;;;;75.80;55.13;;;17.90;58.10;;;;;;4964901;28;91372;-87
2022/03/28 02:29:39;;;;;;;75.53;54.70;;;17.90;58.20;;;;;;4949324;28;93142;-87
2022/03/28 02:32:05;;;;;;;75.55;55.05;;;17.90;57.90;;;;;;4946408;28;92083;-86
2022/03/28 02:34:31;;;;;;;74.93;55.08;;;17.90;58.00;;;;;;4944981;28;91115;-87
2022/03/28 02:36:56;;;;;;;74.97;54.70;;;17.90;57.90;;;;;;4965769;28;89512;-87
2022/03/28 02:39:22;;;;;;;76.13;55.05;;;17.80;57.90;;;;;;4947193;28;93619;-87
2022/03/28 02:41:48;;;;;;;73.93;54.40;;;17.90;58.00;;;;;;4966482;28;93554;-86
2022/03/28 02:44:14;;;;;;;77.05;54.70;;;17.80;57.80;;;;;;4959290;28;91168;-87
2022/03/28 02:46:40;;;;;;;74.43;54.47;;;17.80;57.80;;;;;;4960140;28;95039;-87
2022/03/28 02:49:06;;;;;;;74.03;54.97;;;17.80;57.90;;;;;;4963296;28;90013;-87
2022/03/28 02:51:31;;;;;;;75.43;54.63;;;17.80;58.00;;;;;;4945663;28;90786;-87
2022/03/28 02:53:57;;;;;;;72.80;53.65;;;17.80;57.80;;;;;;4960702;28;92388;-87
2022/03/28 02:56:23;;;;;;;73.88;54.60;;;17.80;57.90;;;;;;4947474;28;95399;-87
2022/03/28 02:58:48;;;;;;;74.75;54.72;;;17.80;57.80;;;;;;4947939;28;92605;-87
2022/03/28 03:01:14;;;;;;;72.45;53.83;;;17.70;57.90;;;;;;4979894;28;95430;-87
2022/03/28 03:03:40;;;;;;;73.30;54.10;;;17.80;57.90;;;;;;4986259;28;89869;-87
2022/03/28 03:06:06;;;;;;;73.97;54.00;;;17.70;57.80;;;;;;4984200;28;90712;-87
2022/03/28 03:08:31;;;;;;;74.95;53.78;;;17.70;57.80;;;;;;4979059;28;90000;-87
2022/03/28 03:10:57;;;;;;;74.45;54.60;;;17.70;57.90;;;;;;4979918;28;89935;-87
2022/03/28 03:13:23;;;;;;;73.72;54.20;;;17.70;57.80;;;;;;4983458;28;89730;-87
2022/03/28 03:15:48;;;;;;;73.10;53.10;;;17.70;57.70;;;;;;4970930;28;92854;-87
2022/03/28 03:18:14;;;;;;;74.85;54.22;;;17.70;57.80;;;;;;4987590;28;90903;-87
2022/03/28 03:20:40;;;;;;;73.50;53.83;;;17.70;57.70;;;;;;4991397;28;91110;-87
2022/03/28 03:23:05;;;;;;;73.80;54.30;;;17.70;57.70;;;;;;5000326;28;90328;-87
2022/03/28 03:25:31;;;;;;;72.05;53.33;;;17.70;57.60;;;;;;4996559;28;91582;-87
2022/03/28 03:27:57;;;;;;;73.10;53.78;;;17.70;57.70;;;;;;4999149;28;89508;-87
2022/03/28 03:30:23;;;;;;;75.55;54.70;;;17.70;57.50;;;;;;4989972;28;90918;-88
2022/03/28 03:32:49;;;;;;;70.47;52.83;;;17.70;57.70;;;;;;4994135;28;90036;-87
2022/03/28 03:35:15;;;;;;;71.32;53.33;;;17.70;57.80;;;;;;4991675;28;93697;-87
2022/03/28 03:37:40;;;;;;;72.47;53.30;;;17.60;57.80;;;;;;4984479;28;92244;-87
2022/03/28 03:40:07;;;;;;;72.15;53.40;;;17.70;57.80;;;;;;4984172;28;90935;-87
2022/03/28 03:42:33;;;;;;;72.05;53.33;;;17.70;57.50;;;;;;4984651;28;90384;-87
2022/03/28 03:44:59;;;;;;;71.60;53.15;;;17.70;57.70;;;;;;4968842;28;96069;-87
2022/03/28 03:47:25;;;;;;;71.53;52.83;;;17.70;57.60;;;;;;4995104;28;92401;-87
2022/03/28 03:49:51;;;;;;;71.53;53.17;;;17.70;57.70;;;;;;4988523;28;91189;-86
2022/03/28 03:52:17;;;;;;;72.53;53.35;;;17.60;57.60;;;;;;4992951;28;91984;-87
2022/03/28 03:54:42;;;;;;;70.90;52.67;;;17.60;57.70;;;;;;4986941;28;90292;-87
2022/03/28 03:57:08;;;;;;;71.45;52.58;;;17.60;57.70;;;;;;4985562;28;90773;-87
2022/03/28 03:59:34;;;;;;;72.05;52.50;;;17.60;58.20;;;;;;4988728;28;90123;-87
2022/03/28 04:02:00;;;;;;;72.20;52.85;;;17.60;57.70;;;;;;4994161;28;88923;-87
2022/03/28 04:04:26;;;;;;;70.53;52.40;;;17.70;57.60;;;;;;4990614;28;91774;-87
2022/03/28 04:06:52;;;;;;;71.25;52.45;;;17.70;57.70;;;;;;4992013;28;90870;-87
2022/03/28 04:09:18;;;;;;;71.45;52.63;;;17.70;57.80;;;;;;4986715;28;91887;-87
2022/03/28 04:11:43;;;;;;;70.60;52.38;;;17.70;57.80;;;;;;4971494;28;91236;-87
2022/03/28 04:14:10;;;;;;;71.25;52.25;;;17.80;57.80;;;;;;4987971;28;93250;-87
2022/03/28 04:16:35;;;;;;;72.38;52.83;;;17.90;57.80;;;;;;4983120;28;89743;-88
2022/03/28 04:19:01;;;;;;;70.63;52.35;;;17.90;57.70;;;;;;4972223;28;89545;-87
2022/03/28 04:21:26;;;;;;;71.50;52.60;;;18.00;57.60;;;;;;4991380;28;90190;-86
2022/03/28 04:23:52;;;;;;;71.78;52.42;;;18.00;57.50;;;;;;4994384;28;91264;-87
2022/03/28 04:26:18;;;;;;;71.72;52.60;;;18.10;57.30;;;;;;4987746;28;92108;-88
2022/03/28 04:28:44;;;;;;;70.32;51.72;;;18.20;57.20;;;;;;5000999;28;89320;-87
2022/03/28 04:31:10;;;;;;;71.40;52.22;;;18.20;57.00;;;;;;4998242;28;90302;-87
2022/03/28 04:33:36;;;;;;;69.35;52.03;;;18.20;56.90;;;;;;4991865;28;91016;-86
2022/03/28 04:36:03;;;;;;;69.50;51.85;;;18.30;56.80;;;;;;4991962;28;90999;-87
2022/03/28 04:38:29;;;;;;;71.15;52.33;;;18.40;56.70;;;;;;4989929;28;90078;-86
2022/03/28 04:40:55;;;;;;;71.55;52.35;;;18.50;56.50;;;;;;4974664;28;89526;-87
2022/03/28 04:43:20;;;;;;;72.38;52.38;;;18.50;56.30;;;;;;4988310;28;93782;-86
2022/03/28 04:45:46;;;;;;;72.18;52.22;;;18.60;56.80;;;;;;4989646;28;90124;-87
2022/03/28 04:48:12;;;;;;;72.95;52.03;;;18.60;56.10;;;;;;4992085;28;92525;-87
2022/03/28 04:50:38;;;;;;;70.70;52.25;;;18.70;56.00;;;;;;4993073;28;91438;-87
2022/03/28 04:53:04;;;;;;;71.88;52.45;;;18.70;55.80;;;;;;4979479;28;93518;-87
2022/03/28 04:55:31;;;;;;;70.45;52.22;;;18.70;55.60;;;;;;4990400;28;90331;-87
2022/03/28 04:57:57;;;;;;;71.80;51.88;;;18.80;55.70;;;;;;4972008;28;91831;-86
2022/03/28 05:00:23;;;;;;;71.30;51.95;;;18.80;55.60;;;;;;4975362;28;89608;-86
2022/03/28 05:02:49;;;;;;;70.50;51.88;;;18.80;55.40;;;;;;4981881;28;93376;-86
2022/03/28 05:05:14;;;;;;;71.60;52.00;;;18.80;55.20;;;;;;4997636;28;90794;-86
2022/03/28 05:07:40;;;;;;;70.25;52.17;;;18.80;55.10;;;;;;4983237;28;91082;-86
2022/03/28 05:10:07;;;;;;;71.75;52.17;;;18.90;55.10;;;;;;4963502;28;91049;-89
2022/03/28 05:12:34;;;;;;;70.47;51.92;;;19.00;55.20;;;;;;4972184;28;91724;-86
2022/03/28 05:15:01;;;;;;;70.18;52.50;;;18.90;55.30;;;;;;4977557;28;89761;-88
2022/03/28 05:17:29;;;;;;;72.55;51.95;;;19.00;55.20;;;;;;4986330;28;89821;-87
2022/03/28 05:19:55;;;;;;;75.53;52.10;;;19.00;55.40;;;;;;4974897;28;90358;-91
2022/03/28 05:22:22;;;;;;;73.18;52.50;;;19.00;55.40;;;;;;4981689;28;96011;-88
2022/03/28 05:24:49;;;;;;;72.95;51.78;;;19.10;55.30;;;;;;4972850;28;91136;-88
2022/03/28 05:27:15;;;;;;;70.88;52.33;;;19.10;55.30;;;;;;4976551;28;89796;-85
2022/03/28 05:29:41;;;;;;;75.72;52.45;;;19.20;55.10;;;;;;4997903;28;89481;-88
2022/03/28 05:32:08;;;;;;;71.82;52.42;;;19.20;55.00;;;;;;4999564;28;90890;-88
2022/03/28 05:34:33;;;;;;;72.40;52.25;;;19.20;54.80;;;;;;4998166;28;89955;-88
2022/03/28 05:37:01;;;;;;;73.13;52.63;;;19.30;54.60;;;;;;4996154;28;91856;-86
2022/03/28 05:39:27;;;;;;;72.55;52.42;;;19.30;54.40;;;;;;4991274;28;90977;-89
2022/03/28 05:41:54;;;;;;;73.45;52.33;;;19.30;54.10;;;;;;4972676;28;94148;-85
2022/03/28 05:44:20;;;;;;;74.13;52.75;;;19.40;54.60;;;;;;4977005;28;90209;-87
2022/03/28 05:46:48;;;;;;;77.25;53.00;;;19.50;54.80;;;;;;4980689;28;90699;-89
2022/03/28 05:49:14;;;;;;;77.82;52.97;;;19.50;54.80;;;;;;4984965;28;90506;-89
2022/03/28 05:51:40;;;;;;;75.97;53.15;;;19.60;54.90;;;;;;4974788;28;91079;-89
2022/03/28 05:54:05;;;;;;;75.53;53.10;;;19.60;54.50;;;;;;4972403;28;91512;-89
2022/03/28 05:56:31;;;;;;;74.28;53.00;;;19.60;54.30;;;;;;4973798;28;91249;-89
2022/03/28 05:58:57;;;;;;;77.28;53.33;;;19.70;54.20;;;;;;4974695;28;90905;-89
2022/03/28 06:01:22;;;;;;;73.18;53.00;;;19.70;54.10;;;;;;4984546;28;91877;-89
2022/03/28 06:03:48;;;;;;;73.25;52.92;;;19.70;53.90;;;;;;4987442;28;91317;-89
2022/03/28 06:06:14;;;;;;;76.88;53.05;;;19.80;54.10;;;;;;4974217;28;90834;-88
2022/03/28 06:08:42;;;;;;;75.40;52.85;;;19.80;54.10;;;;;;4969683;28;91503;-87
2022/03/28 06:11:08;;;;;;;76.55;53.55;;;19.80;54.10;;;;;;4962997;28;91754;-88
2022/03/28 06:13:35;;;;;;;77.22;53.72;;;19.90;53.90;;;;;;4950137;28;92799;-88
2022/03/28 06:16:03;;;;;;;75.35;53.30;;;19.90;53.90;;;;;;4966270;28;90858;-88
2022/03/28 06:18:30;;;;;;;76.22;53.42;;;19.90;53.60;;;;;;4957003;28;91361;-88
2022/03/28 06:20:56;;;;;;;79.40;53.55;;;20.00;53.60;;;;;;4943939;28;92944;-88
2022/03/28 06:23:22;;;;;;;76.10;53.72;;;20.00;53.50;;;;;;4965565;28;90334;-89
2022/03/28 06:25:47;;;;;;;74.95;53.85;;;20.00;53.40;;;;;;4953939;28;92925;-88
2022/03/28 06:28:15;;;;;;;79.00;53.88;;;20.00;53.30;;;;;;4972839;28;88944;-89
2022/03/28 06:30:41;;;;;;;82.43;53.60;;;20.00;53.00;;;;;;4962439;28;91330;-89
2022/03/28 06:33:06;;;;;;;78.30;53.35;;;20.00;53.20;;;;;;4977555;28;90797;-88
2022/03/28 06:35:32;;;;;;;82.40;53.78;;;20.00;53.10;;;;;;4970237;28;92483;-89
2022/03/28 06:37:58;;;;;;;80.13;53.65;;;20.00;52.90;;;;;;4949226;28;90910;-88
2022/03/28 06:40:24;;;;;;;78.03;53.67;;;20.00;53.20;;;;;;4950838;28;91963;-87
2022/03/28 06:42:50;;;;;;;77.47;54.33;;;20.00;52.90;;;;;;4968956;28;90965;-88
2022/03/28 06:45:15;;;;;;;79.03;54.10;;;20.00;52.90;;;;;;4955921;28;91765;-88
2022/03/28 06:47:42;;;;;;;75.40;53.67;;;20.00;52.90;;;;;;4945790;28;91330;-88
2022/03/28 06:50:08;;;;;;;77.88;54.05;;;20.00;53.00;;;;;;4950641;28;93517;-87
2022/03/28 06:52:35;;;;;;;78.07;53.95;;;20.00;52.90;;;;;;4967381;28;94504;-88
2022/03/28 06:55:02;;;;;;;79.25;53.72;;;20.00;53.30;;;;;;4972010;28;90359;-88
2022/03/28 06:57:27;;;;;;;76.40;53.83;;;20.00;52.80;;;;;;4955129;28;91233;-88
2022/03/28 06:59:53;;;;;;;82.28;53.90;;;20.00;52.80;;;;;;4968369;28;92380;-88
2022/03/28 07:02:19;;;;;;;76.80;53.40;;;20.00;52.70;;;;;;4951055;28;95039;-88
2022/03/28 07:04:45;;;;;;;80.78;53.80;;;20.00;52.70;;;;;;4961141;28;91212;-87
2022/03/28 07:07:11;;;;;;;77.45;54.47;;;20.00;52.80;;;;;;4951834;28;91564;-87
2022/03/28 07:09:37;;;;;;;81.35;54.75;;;20.00;52.80;;;;;;4967702;28;91289;-88
2022/03/28 07:12:05;;;;;;;79.28;53.90;;;20.00;52.90;;;;;;4959697;28;91273;-89
2022/03/28 07:14:32;;;;;;;80.35;53.78;;;20.00;53.10;;;;;;4948886;28;91963;-88
2022/03/28 07:16:58;;;;;;;79.28;54.47;;;20.00;52.70;;;;;;4950317;28;88756;-88
2022/03/28 07:19:24;;;;;;;77.72;53.92;;;19.90;52.70;;;;;;4951435;28;92513;-88
2022/03/28 07:21:49;;;;;;;79.03;53.95;;;20.00;52.80;;;;;;4943282;28;92958;-88
2022/03/28 07:24:18;;;;;;;80.88;53.47;;;20.00;52.70;;;;;;4952806;28;93000;-88
2022/03/28 07:26:48;;;;;;;77.85;53.63;;;20.00;52.70;;;;;;4973925;28;90463;-88
2022/03/28 07:29:15;;;;;;;80.90;54.65;;;19.90;52.80;;;;;;4960956;28;90508;-88
2022/03/28 07:31:41;;;;;;;80.68;54.70;;;20.00;53.00;;;;;;4987398;27;91178;-87
2022/03/28 07:36:54;;;;;;;78.65;53.65;;;19.90;52.90;;;;;;4977772;28;90785;-88
2022/03/28 07:39:20;;;;;;;86.13;54.58;;;20.00;53.10;;;;;;4957996;28;92696;-88
2022/03/28 07:41:47;;;;;;;80.90;54.50;;;20.00;53.10;;;;;;4966318;28;94396;-89
2022/03/28 07:44:13;;;;;;;83.00;54.22;;;20.00;52.90;;;;;;4969120;28;90846;-89
2022/03/28 07:46:39;;;;;;;81.60;53.58;;;20.00;52.80;;;;;;4973680;28;89880;-90
2022/03/28 07:49:06;;;;;;;79.65;53.63;;;20.00;52.70;;;;;;4943455;28;94516;-89
2022/03/28 07:51:31;;;;;;;85.82;54.65;;;20.00;52.90;;;;;;4965769;28;91862;-88
2022/03/28 07:53:57;;;;;;;83.30;54.30;;;20.00;52.70;;;;;;4966987;28;91243;-89
2022/03/28 07:56:22;;;;;;;79.57;53.50;;;20.00;52.50;;;;;;4947280;28;90401;-88
2022/03/28 07:58:48;;;;;;;80.82;54.60;;;20.00;52.40;;;;;;4969081;28;93211;-90
2022/03/28 08:01:15;;;;;;;85.18;55.05;;;20.00;52.40;;;;;;4948591;28;93127;-89
2022/03/28 08:03:40;;;;;;;81.85;54.03;;;20.00;52.50;;;;;;4942003;28;90967;-88
2022/03/28 08:06:06;;;;;;;82.50;54.38;;;20.00;52.30;;;;;;4963078;28;90643;-90
2022/03/28 08:08:32;;;;;;;81.10;54.60;;;20.00;52.30;;;;;;4950329;28;94149;-90
2022/03/28 08:10:59;;;;;;;80.38;53.90;;;20.00;52.30;;;;;;4951872;28;93500;-88
2022/03/28 08:13:24;;;;;;;82.43;54.70;;;20.00;52.10;;;;;;4954428;28;95468;-89
2022/03/28 08:15:52;;;;;;;85.30;55.22;;;20.00;52.10;;;;;;4950340;28;91029;-89
2022/03/28 08:18:18;;;;;;;83.30;55.42;;;20.00;52.10;;;;;;4946684;28;92802;-89
2022/03/28 08:20:44;;;;;;;84.07;55.03;;;20.00;52.00;;;;;;4971679;28;90948;-89
2022/03/28 08:23:09;;;;;;;81.35;54.90;;;20.00;51.90;;;;;;4951089;28;90838;-91
2022/03/28 08:25:35;;;;;;;82.20;54.67;;;19.90;51.70;;;;;;4977050;28;91400;-89
2022/03/28 08:28:01;;;;;;;79.07;54.15;;;19.90;51.90;;;;;;4974389;28;90906;-88
2022/03/28 08:30:27;;;;;;;79.90;53.97;;;20.00;52.10;;;;;;4975119;28;91895;-85
2022/03/28 08:32:54;;;;;;;84.90;55.40;;;20.00;52.00;;;;;;4980372;28;90724;-87
2022/03/28 08:35:21;;;;;;;86.65;55.00;;;20.00;51.80;;;;;;4971705;28;90893;-87
2022/03/28 08:37:47;;;;;;;86.00;55.35;;;20.00;52.00;;;;;;4967481;28;91908;-88
2022/03/28 08:40:17;;;;;;;88.82;55.72;;;20.00;52.20;;;;;;4956480;28;91317;-87
2022/03/28 08:42:43;;;;;;;87.07;54.40;;;20.00;52.10;;;;;;4947649;28;91856;-85
2022/03/28 08:45:11;;;;;;;80.45;54.17;;;20.00;52.30;;;;;;4964254;28;90043;-87
2022/03/28 08:47:42;;;;;;;83.05;54.35;;;20.00;52.50;;;;;;4947642;28;92291;-86
2022/03/28 08:50:09;;;;;;;88.63;55.25;;;20.00;53.20;;;;;;4961295;28;91139;-85
2022/03/28 08:52:34;;;;;;;81.15;54.08;;;20.00;53.30;;;;;;4952620;28;90640;-84
2022/03/28 08:55:00;;;;;;;76.10;53.97;;;20.00;52.70;;;;;;4967253;28;89754;-86
2022/03/28 08:57:26;;;;;;;73.07;53.05;;;20.00;52.70;;;;;;4957889;28;90844;-85
2022/03/28 08:59:51;;;;;;;75.05;53.33;;;20.00;52.80;;;;;;4969895;28;92066;-85
2022/03/28 09:02:46;;;;;;;78.70;53.80;;;20.00;52.90;;;;;;4964713;28;92239;-85
2022/03/28 09:05:17;;;;;;;76.82;54.22;;;20.00;52.90;;;;;;4966215;28;90523;-85
2022/03/28 09:07:44;;;;;;;84.60;54.08;;;20.00;52.90;;;;;;4968362;28;93083;-87
2022/03/28 09:10:13;;;;;;;79.40;53.90;;;20.00;52.90;;;;;;4961931;28;90448;-87
2022/03/28 09:13:05;;;;;;;80.63;54.55;;;20.00;53.10;;;;;;4967973;28;90326;-87
2022/03/28 09:15:51;;;;;;;80.63;54.05;;;20.00;53.10;;;;;;4949366;28;90608;-87
2022/03/28 09:21:03;;;;;;;81.70;54.25;;;20.00;53.20;;;;;;4931320;28;90063;-40
2022/03/28 09:23:33;;;;;;;79.82;53.85;;;20.10;53.10;;;;;;4940349;28;90749;-41
2022/03/28 09:26:05;;;;;;;85.05;55.30;;;20.10;53.20;;;;;;4940560;28;92508;-40
2022/03/28 09:28:46;;;;;;;84.45;54.92;;;20.10;53.10;;;;;;4936663;28;98232;-38
2022/03/28 09:31:20;;;;;;;82.15;54.42;;;20.10;53.10;;;;;;4944927;28;92273;-42
2022/03/28 09:34:02;;;;;;;86.50;55.55;;;20.10;53.00;;;;;;4950967;28;89968;-40
2022/03/28 09:36:48;;;;;;;85.03;54.95;;;20.20;52.90;;;;;;4945669;28;91347;-39
2022/03/28 09:39:21;;;;;;;84.85;54.65;;;20.20;52.90;;;;;;4941250;28;93065;-38
2022/03/28 09:42:01;;;;;;;86.05;54.95;;;20.20;52.80;;;;;;4934594;28;90617;-40
2022/03/28 09:44:36;;;;;;;91.72;55.33;;;20.30;52.70;;;;;;4941815;28;93753;-39
2022/03/28 09:47:12;;;;;;;89.50;55.33;;;20.30;52.60;;;;;;4937533;28;91738;-41
2022/03/28 09:49:41;;;;;;;85.45;55.05;;;20.30;52.60;;;;;;4943727;28;92436;-41
2022/03/28 09:52:17;;;;;;;88.53;55.53;;;20.30;52.90;;;;;;4951231;28;91699;-40
2022/03/28 09:54:55;;;;;;;88.65;55.17;;;20.40;52.90;;;;;;4973445;28;90975;-38
2022/03/28 09:57:31;;;;;;;88.53;56.28;;;20.40;52.90;;;;;;4952544;28;91584;-40
2022/03/28 10:00:14;;;;;;;88.55;56.30;;;20.40;52.80;;;;;;4941297;28;90273;-40
2022/03/28 10:02:41;;;;;;;90.55;56.15;;;20.50;52.90;;;;;;4942323;28;89956;-40
2022/03/28 10:05:07;;;;;;;90.38;56.08;;;20.50;52.80;;;;;;4935890;28;91247;-40
2022/03/28 10:07:33;;;;;;;89.90;55.92;;;20.50;52.60;;;;;;4937174;28;89689;-39
2022/03/28 10:10:00;;;;;;;89.97;56.50;;;20.50;52.40;;;;;;4946374;28;90893;-41
2022/03/28 10:12:26;;;;;;;88.50;56.42;;;20.50;52.40;;;;;;4935674;28;90191;-39
2022/03/28 10:15:00;;;;;;;91.55;57.05;;;20.60;52.30;;;;;;4946752;28;93409;-40
2022/03/28 10:17:31;;;;;;;89.03;56.38;;;20.60;52.30;;;;;;4939262;28;90158;-40
2022/03/28 10:19:58;;;;;;;91.88;57.03;;;20.60;52.10;;;;;;4957766;28;94833;-39
2022/03/28 10:22:28;;;;;;;94.38;57.47;;;20.60;51.90;;;;;;4967583;28;91116;-40
2022/03/28 10:24:57;;;;;;;92.20;57.00;;;20.60;52.20;;;;;;4960298;28;91868;-40
2022/03/28 10:27:23;;;;;;;99.45;57.45;;;20.60;52.20;;;;;;4962282;28;92669;-41
2022/03/28 10:29:48;;;;;;;92.43;57.67;;;20.70;52.40;;;;;;4955245;28;91366;-40
2022/03/28 10:32:19;;;;;;;94.60;57.08;;;20.70;52.20;;;;;;4962200;28;90188;-41
2022/03/28 10:35:00;;;;;;;94.93;57.45;;;20.70;52.30;;;;;;4949271;28;93374;-41
2022/03/28 10:37:37;;;;;;;92.47;57.45;;;20.80;52.90;;;;;;4936347;28;90354;-37
2022/03/28 10:40:18;;;;;;;92.35;57.72;;;20.80;52.40;;;;;;4956427;28;91235;-39
2022/03/28 10:42:59;;;;;;;95.40;58.65;;;20.80;52.10;;;;;;4959379;28;91318;-38
2022/03/28 10:45:36;;;;;;;94.10;58.70;;;20.80;51.80;;;;;;4953211;28;95456;-40
2022/03/28 10:48:04;;;;;;;94.20;57.92;;;20.80;51.60;;;;;;4957247;28;90646;-43
2022/03/28 10:50:33;;;;;;;96.38;57.47;;;20.80;51.70;;;;;;4959487;28;91292;-37
2022/03/28 10:53:07;;;;;;;98.32;58.78;;;20.80;51.80;;;;;;4963339;28;90916;-38
2022/03/28 10:55:56;;;;;;;93.75;57.72;;;20.80;51.60;;;;;;4948159;28;90986;-42
2022/03/28 10:58:35;;;;;;;95.55;57.83;;;20.80;51.60;;;;;;4949088;28;90563;-38
2022/03/28 11:01:13;;;;;;;89.57;57.30;;;20.80;51.60;;;;;;4947529;28;90836;-37
2022/03/28 11:03:49;;;;;;;97.32;58.00;;;20.80;51.60;;;;;;4953286;28;92323;-37
2022/03/28 11:06:17;;;;;;;92.80;58.30;;;20.80;51.70;;;;;;4950229;28;96134;-39
2022/03/28 11:08:47;;;;;;;92.90;57.53;;;20.80;51.60;;;;;;4954716;28;90084;-39
2022/03/28 11:11:27;;;;;;;91.10;57.63;;;20.80;51.60;;;;;;4952932;28;96992;-37
2022/03/28 11:14:12;;;;;;;92.40;57.25;;;20.80;51.70;;;;;;4944793;28;90750;-38
2022/03/28 11:16:52;;;;;;;95.32;57.55;;;20.80;51.70;;;;;;4950895;28;90165;-38
2022/03/28 11:19:28;;;;;;;92.70;58.05;;;20.70;51.80;;;;;;4956254;28;91384;-38
2022/03/28 11:22:03;;;;;;;94.25;57.08;;;20.80;51.80;;;;;;4950400;28;98701;-38
2022/03/28 11:24:45;;;;;;;92.07;57.33;;;20.70;51.90;;;;;;4952878;28;91023;-40
2022/03/28 11:27:13;;;;;;;89.70;57.60;;;20.70;51.90;;;;;;4950467;28;90197;-38
2022/03/28 11:29:38;;;;;;;92.75;57.28;;;20.70;51.90;;;;;;4949252;28;91035;-38
2022/03/28 11:32:13;;;;;;;91.50;57.15;;;20.70;51.90;;;;;;4950018;28;91042;-38
2022/03/28 11:34:39;;;;;;;92.95;57.65;;;20.70;52.00;;;;;;4954035;28;90327;-38
2022/03/28 11:37:05;;;;;;;94.50;57.15;;;20.70;51.90;;;;;;4956959;28;91456;-39
2022/03/28 11:39:50;;;;;;;89.72;57.13;;;20.70;52.00;;;;;;4954193;28;92270;-39
2022/03/28 11:42:20;;;;;;;90.50;57.47;;;20.70;52.00;;;;;;4951624;28;95423;-38
2022/03/28 11:44:45;;;;;;;90.18;57.10;;;20.70;52.10;;;;;;4955880;28;96693;-38
2022/03/28 11:47:17;;;;;;;92.25;57.38;;;20.70;52.10;;;;;;4965547;28;91353;-39
2022/03/28 11:49:53;;;;;;;90.65;57.15;;;20.70;52.10;;;;;;4961262;28;92886;-40
2022/03/28 11:52:23;;;;;;;90.43;57.22;;;20.70;52.10;;;;;;4960316;28;90359;-37
2022/03/28 11:54:49;;;;;;;94.63;57.22;;;20.70;52.10;;;;;;4956663;28;91446;-39
2022/03/28 12:00:24;;;;;;;91.30;57.45;;;20.70;52.00;;;;;;4947669;28;90950;-39
2022/03/28 12:02:55;;;;;;;88.82;56.63;;;20.80;52.10;;;;;;4947466;28;92293;-38
2022/03/28 12:05:29;;;;;;;90.05;57.13;;;20.70;52.10;;;;;;4948799;28;92365;-40
2022/03/28 12:07:55;;;;;;;91.25;56.75;;;20.70;52.20;;;;;;4950198;28;91082;-40
2022/03/28 12:10:32;;;;;;;89.00;56.60;;;20.80;52.20;;;;;;4939175;28;90786;-40
2022/03/28 12:13:00;;;;;;;97.43;58.08;;;20.80;52.20;;;;;;4941738;28;92264;-37
2022/03/28 12:15:30;;;;;;;89.45;57.13;;;20.80;52.30;;;;;;4950487;28;92736;-41
2022/03/28 12:18:00;;;;;;;92.68;57.80;;;20.80;52.40;;;;;;4949379;28;90886;-40
2022/03/28 12:20:31;;;;;;;95.60;57.33;;;20.80;52.50;;;;;;4947616;28;91816;-39
2022/03/28 12:22:58;;;;;;;;;;;20.90;52.60;;;;;;4962999;27;90719;-40
2022/03/28 12:25:37;;;;;;;92.25;56.95;;;20.90;52.70;;;;;;4950003;28;91216;-39
2022/03/28 12:28:25;;;;;;;91.70;57.53;;;21.00;52.70;;;;;;4951684;28;91326;-40
2022/03/28 12:30:55;;;;;;;93.07;57.72;;;21.00;52.50;;;;;;4955397;28;91816;-40
2022/03/28 12:33:26;;;;;;;90.28;56.80;;;21.10;52.40;;;;;;4967983;27;90947;-40
2022/03/28 12:36:00;;;;;;;88.72;56.83;;;21.10;52.40;;;;;;4950649;27;93135;-39
2022/03/28 12:38:38;;;;;;;92.53;57.60;;;21.10;52.40;;;;;;4952128;28;90632;-40
2022/03/28 12:41:08;;;;;;;93.55;57.25;;;21.20;52.40;;;;;;4937841;28;94130;-39